sensor_id;sensor_type;location;lat;lon;timestamp;temperature;humidity
31979;DHT22;18502;43.574;1.276;2023-09-12T00:00:56;20.90;99.90
31979;DHT22;18502;43.574;1.276;2023-09-12T00:03:23;20.90;99.90
31979;DHT22;18502;43.574;1.276;2023-09-12T00:05:56;21.00;99.90
31979;DHT22;18502;43.574;1.276;2023-09-12T00:08:22;21.20;99.90
31979;DHT22;18502;43.574;1.276;2023-09-12T00:11:05;21.20;99.90
31979;DHT22;18502;43.574;1.276;2023-09-12T00:13:32;20.90;99.90
31979;DHT22;18502;43.574;1.276;2023-09-12T00:15:58;20.90;99.90
31979;DHT22;18502;43.574;1.276;2023-09-12T00:18:24;20.90;99.90
31979;DHT22;18502;43.574;1.276;2023-09-12T00:20:50;20.80;99.90
31979;DHT22;18502;43.574;1.276;2023-09-12T00:23:17;20.90;99.90
31979;DHT22;18502;43.574;1.276;2023-09-12T00:25:43;20.90;99.90
31979;DHT22;18502;43.574;1.276;2023-09-12T00:28:09;21.00;99.90
31979;DHT22;18502;43.574;1.276;2023-09-12T00:30:34;21.00;99.90
31979;DHT22;18502;43.574;1.276;2023-09-12T00:33:00;20.90;99.90
31979;DHT22;18502;43.574;1.276;2023-09-12T00:35:26;21.00;99.90
31979;DHT22;18502;43.574;1.276;2023-09-12T00:37:51;21.00;99.90
31979;DHT22;18502;43.574;1.276;2023-09-12T00:40:17;20.80;99.90
31979;DHT22;18502;43.574;1.276;2023-09-12T00:42:42;20.90;99.90
31979;DHT22;18502;43.574;1.276;2023-09-12T00:45:08;21.00;99.90
31979;DHT22;18502;43.574;1.276;2023-09-12T00:47:35;21.10;99.90
31979;DHT22;18502;43.574;1.276;2023-09-12T00:50:02;21.10;99.90
31979;DHT22;18502;43.574;1.276;2023-09-12T00:52:31;20.90;99.90
31979;DHT22;18502;43.574;1.276;2023-09-12T00:54:58;20.80;99.90
31979;DHT22;18502;43.574;1.276;2023-09-12T00:57:24;20.80;99.90
31979;DHT22;18502;43.574;1.276;2023-09-12T00:59:51;20.80;99.90
31979;DHT22;18502;43.574;1.276;2023-09-12T01:02:19;20.80;99.90
31979;DHT22;18502;43.574;1.276;2023-09-12T01:04:46;20.70;99.90
31979;DHT22;18502;43.574;1.276;2023-09-12T01:07:11;21.00;99.90
31979;DHT22;18502;43.574;1.276;2023-09-12T01:09:37;21.20;99.90
31979;DHT22;18502;43.574;1.276;2023-09-12T01:12:03;21.30;99.90
31979;DHT22;18502;43.574;1.276;2023-09-12T01:14:30;21.00;99.90
31979;DHT22;18502;43.574;1.276;2023-09-12T01:16:56;21.10;99.90
31979;DHT22;18502;43.574;1.276;2023-09-12T01:19:23;20.90;99.90
31979;DHT22;18502;43.574;1.276;2023-09-12T01:27:42;21.00;99.90
31979;DHT22;18502;43.574;1.276;2023-09-12T01:30:12;20.80;99.90
31979;DHT22;18502;43.574;1.276;2023-09-12T01:32:42;20.50;99.90
31979;DHT22;18502;43.574;1.276;2023-09-12T01:35:08;20.30;99.90
31979;DHT22;18502;43.574;1.276;2023-09-12T01:37:34;20.20;99.90
31979;DHT22;18502;43.574;1.276;2023-09-12T01:40:00;20.20;99.90
31979;DHT22;18502;43.574;1.276;2023-09-12T01:42:31;20.40;99.90
31979;DHT22;18502;43.574;1.276;2023-09-12T01:45:01;20.30;99.90
31979;DHT22;18502;43.574;1.276;2023-09-12T01:47:28;20.50;99.90
31979;DHT22;18502;43.574;1.276;2023-09-12T01:49:56;20.50;99.90
31979;DHT22;18502;43.574;1.276;2023-09-12T01:52:23;20.40;99.90
31979;DHT22;18502;43.574;1.276;2023-09-12T01:54:50;19.60;99.90
31979;DHT22;18502;43.574;1.276;2023-09-12T01:57:17;19.20;99.90
31979;DHT22;18502;43.574;1.276;2023-09-12T01:59:48;20.00;99.90
31979;DHT22;18502;43.574;1.276;2023-09-12T02:02:15;20.80;99.90
31979;DHT22;18502;43.574;1.276;2023-09-12T02:04:41;21.40;99.90
31979;DHT22;18502;43.574;1.276;2023-09-12T02:07:07;21.90;99.90
31979;DHT22;18502;43.574;1.276;2023-09-12T02:09:33;22.00;99.90
31979;DHT22;18502;43.574;1.276;2023-09-12T02:11:58;22.10;99.90
31979;DHT22;18502;43.574;1.276;2023-09-12T02:14:24;22.10;99.90
31979;DHT22;18502;43.574;1.276;2023-09-12T02:16:49;22.50;99.90
31979;DHT22;18502;43.574;1.276;2023-09-12T02:19:15;22.70;99.90
31979;DHT22;18502;43.574;1.276;2023-09-12T02:21:41;22.90;99.90
31979;DHT22;18502;43.574;1.276;2023-09-12T02:24:07;23.00;99.90
31979;DHT22;18502;43.574;1.276;2023-09-12T02:26:33;23.30;99.90
31979;DHT22;18502;43.574;1.276;2023-09-12T02:29:02;23.50;99.90
31979;DHT22;18502;43.574;1.276;2023-09-12T02:31:28;23.50;99.90
31979;DHT22;18502;43.574;1.276;2023-09-12T02:33:54;23.60;99.90
31979;DHT22;18502;43.574;1.276;2023-09-12T02:36:20;23.70;99.90
31979;DHT22;18502;43.574;1.276;2023-09-12T02:38:45;23.80;99.90
31979;DHT22;18502;43.574;1.276;2023-09-12T02:41:11;24.00;99.90
31979;DHT22;18502;43.574;1.276;2023-09-12T02:43:37;24.30;99.90
31979;DHT22;18502;43.574;1.276;2023-09-12T02:46:02;24.40;99.90
31979;DHT22;18502;43.574;1.276;2023-09-12T02:48:28;24.50;99.90
31979;DHT22;18502;43.574;1.276;2023-09-12T02:50:53;24.60;99.90
31979;DHT22;18502;43.574;1.276;2023-09-12T02:53:19;24.80;99.90
31979;DHT22;18502;43.574;1.276;2023-09-12T02:55:45;24.90;99.90
31979;DHT22;18502;43.574;1.276;2023-09-12T02:58:10;25.00;99.90
31979;DHT22;18502;43.574;1.276;2023-09-12T03:00:39;25.10;99.90
31979;DHT22;18502;43.574;1.276;2023-09-12T03:03:08;25.00;99.90
31979;DHT22;18502;43.574;1.276;2023-09-12T03:05:35;25.30;99.90
31979;DHT22;18502;43.574;1.276;2023-09-12T03:08:01;25.30;99.90
31979;DHT22;18502;43.574;1.276;2023-09-12T03:10:28;25.30;99.90
31979;DHT22;18502;43.574;1.276;2023-09-12T03:12:53;25.30;99.90
31979;DHT22;18502;43.574;1.276;2023-09-12T03:15:19;25.40;99.90
31979;DHT22;18502;43.574;1.276;2023-09-12T03:17:45;25.50;99.90
31979;DHT22;18502;43.574;1.276;2023-09-12T03:20:11;25.50;99.90
31979;DHT22;18502;43.574;1.276;2023-09-12T03:22:37;25.50;99.90
31979;DHT22;18502;43.574;1.276;2023-09-12T03:25:03;25.50;99.90
31979;DHT22;18502;43.574;1.276;2023-09-12T03:27:29;25.40;99.90
31979;DHT22;18502;43.574;1.276;2023-09-12T03:29:55;25.40;99.90
31979;DHT22;18502;43.574;1.276;2023-09-12T03:32:21;25.60;99.90
31979;DHT22;18502;43.574;1.276;2023-09-12T03:34:47;25.40;99.90
31979;DHT22;18502;43.574;1.276;2023-09-12T03:37:12;25.30;99.90
31979;DHT22;18502;43.574;1.276;2023-09-12T03:39:38;25.20;99.90
31979;DHT22;18502;43.574;1.276;2023-09-12T03:42:04;25.20;99.90
31979;DHT22;18502;43.574;1.276;2023-09-12T03:44:30;25.10;99.90
31979;DHT22;18502;43.574;1.276;2023-09-12T03:46:55;25.10;99.90
31979;DHT22;18502;43.574;1.276;2023-09-12T03:49:22;25.00;99.90
31979;DHT22;18502;43.574;1.276;2023-09-12T03:51:48;24.90;99.90
31979;DHT22;18502;43.574;1.276;2023-09-12T03:54:13;24.80;99.90
31979;DHT22;18502;43.574;1.276;2023-09-12T03:56:39;24.80;99.90
31979;DHT22;18502;43.574;1.276;2023-09-12T03:59:05;24.80;99.90
31979;DHT22;18502;43.574;1.276;2023-09-12T04:01:30;24.80;99.90
31979;DHT22;18502;43.574;1.276;2023-09-12T04:03:56;24.80;99.90
31979;DHT22;18502;43.574;1.276;2023-09-12T04:06:21;24.80;99.90
31979;DHT22;18502;43.574;1.276;2023-09-12T04:08:47;24.80;99.90
31979;DHT22;18502;43.574;1.276;2023-09-12T04:11:13;24.70;99.90
31979;DHT22;18502;43.574;1.276;2023-09-12T04:13:38;24.80;99.90
31979;DHT22;18502;43.574;1.276;2023-09-12T04:16:04;24.70;99.90
31979;DHT22;18502;43.574;1.276;2023-09-12T04:18:30;24.70;99.90
31979;DHT22;18502;43.574;1.276;2023-09-12T04:20:55;24.60;99.90
31979;DHT22;18502;43.574;1.276;2023-09-12T04:23:22;24.60;99.90
31979;DHT22;18502;43.574;1.276;2023-09-12T04:25:48;24.80;99.90
31979;DHT22;18502;43.574;1.276;2023-09-12T04:28:13;24.80;99.90
31979;DHT22;18502;43.574;1.276;2023-09-12T04:30:39;24.80;99.90
31979;DHT22;18502;43.574;1.276;2023-09-12T04:33:05;24.80;99.90
31979;DHT22;18502;43.574;1.276;2023-09-12T04:35:34;24.80;99.90
31979;DHT22;18502;43.574;1.276;2023-09-12T04:38:00;24.70;99.90
31979;DHT22;18502;43.574;1.276;2023-09-12T04:40:26;24.70;99.90
31979;DHT22;18502;43.574;1.276;2023-09-12T04:42:52;24.70;99.90
31979;DHT22;18502;43.574;1.276;2023-09-12T04:45:18;24.70;99.90
31979;DHT22;18502;43.574;1.276;2023-09-12T04:47:44;24.60;99.90
31979;DHT22;18502;43.574;1.276;2023-09-12T04:50:10;24.60;99.90
31979;DHT22;18502;43.574;1.276;2023-09-12T04:52:37;24.60;99.90
31979;DHT22;18502;43.574;1.276;2023-09-12T04:55:03;24.60;99.90
31979;DHT22;18502;43.574;1.276;2023-09-12T04:57:29;24.60;99.90
31979;DHT22;18502;43.574;1.276;2023-09-12T04:59:56;24.60;99.90
31979;DHT22;18502;43.574;1.276;2023-09-12T05:02:24;24.80;99.90
31979;DHT22;18502;43.574;1.276;2023-09-12T05:04:50;24.90;99.90
31979;DHT22;18502;43.574;1.276;2023-09-12T05:07:15;24.90;99.90
31979;DHT22;18502;43.574;1.276;2023-09-12T05:09:41;24.70;99.90
31979;DHT22;18502;43.574;1.276;2023-09-12T05:12:08;24.70;99.90
31979;DHT22;18502;43.574;1.276;2023-09-12T05:14:33;24.60;99.90
31979;DHT22;18502;43.574;1.276;2023-09-12T05:16:59;24.70;99.90
31979;DHT22;18502;43.574;1.276;2023-09-12T05:19:24;24.80;99.90
31979;DHT22;18502;43.574;1.276;2023-09-12T05:21:51;24.70;99.90
31979;DHT22;18502;43.574;1.276;2023-09-12T05:24:18;24.70;99.90
31979;DHT22;18502;43.574;1.276;2023-09-12T05:26:43;24.60;99.90
31979;DHT22;18502;43.574;1.276;2023-09-12T05:29:09;24.60;99.90
31979;DHT22;18502;43.574;1.276;2023-09-12T05:31:35;24.60;99.90
31979;DHT22;18502;43.574;1.276;2023-09-12T05:34:00;24.60;99.90
31979;DHT22;18502;43.574;1.276;2023-09-12T05:36:26;24.60;99.90
31979;DHT22;18502;43.574;1.276;2023-09-12T05:38:52;24.60;99.90
31979;DHT22;18502;43.574;1.276;2023-09-12T05:41:17;24.70;99.90
31979;DHT22;18502;43.574;1.276;2023-09-12T05:43:43;24.80;99.90
31979;DHT22;18502;43.574;1.276;2023-09-12T05:46:09;24.80;99.90
31979;DHT22;18502;43.574;1.276;2023-09-12T05:48:34;24.80;99.90
31979;DHT22;18502;43.574;1.276;2023-09-12T05:51:00;24.90;99.90
31979;DHT22;18502;43.574;1.276;2023-09-12T05:53:26;24.90;99.90
31979;DHT22;18502;43.574;1.276;2023-09-12T05:55:52;24.90;99.90
31979;DHT22;18502;43.574;1.276;2023-09-12T05:58:17;25.10;99.90
31979;DHT22;18502;43.574;1.276;2023-09-12T06:00:43;25.00;99.90
31979;DHT22;18502;43.574;1.276;2023-09-12T06:03:08;25.20;99.90
31979;DHT22;18502;43.574;1.276;2023-09-12T06:05:34;25.30;99.90
31979;DHT22;18502;43.574;1.276;2023-09-12T06:08:00;25.30;99.90
31979;DHT22;18502;43.574;1.276;2023-09-12T06:10:26;25.30;99.90
31979;DHT22;18502;43.574;1.276;2023-09-12T06:12:51;25.40;99.90
31979;DHT22;18502;43.574;1.276;2023-09-12T06:15:17;25.50;99.90
31979;DHT22;18502;43.574;1.276;2023-09-12T06:17:43;25.60;99.90
31979;DHT22;18502;43.574;1.276;2023-09-12T06:20:09;25.70;99.90
31979;DHT22;18502;43.574;1.276;2023-09-12T06:22:35;25.70;99.90
31979;DHT22;18502;43.574;1.276;2023-09-12T06:25:01;25.60;99.90
31979;DHT22;18502;43.574;1.276;2023-09-12T06:27:27;25.70;99.90
31979;DHT22;18502;43.574;1.276;2023-09-12T06:29:52;25.60;99.90
31979;DHT22;18502;43.574;1.276;2023-09-12T06:32:18;25.60;99.90
31979;DHT22;18502;43.574;1.276;2023-09-12T06:34:44;25.40;99.90
31979;DHT22;18502;43.574;1.276;2023-09-12T06:37:13;25.10;99.90
31979;DHT22;18502;43.574;1.276;2023-09-12T06:39:39;25.10;99.90
31979;DHT22;18502;43.574;1.276;2023-09-12T06:42:04;25.00;99.90
31979;DHT22;18502;43.574;1.276;2023-09-12T06:44:30;24.80;99.90
31979;DHT22;18502;43.574;1.276;2023-09-12T06:46:56;24.80;99.90
31979;DHT22;18502;43.574;1.276;2023-09-12T06:49:21;24.70;99.90
31979;DHT22;18502;43.574;1.276;2023-09-12T06:51:47;24.70;99.90
31979;DHT22;18502;43.574;1.276;2023-09-12T06:54:13;24.70;99.90
31979;DHT22;18502;43.574;1.276;2023-09-12T06:56:38;24.70;99.90
31979;DHT22;18502;43.574;1.276;2023-09-12T06:59:07;24.70;99.90
31979;DHT22;18502;43.574;1.276;2023-09-12T07:01:32;24.60;99.90
31979;DHT22;18502;43.574;1.276;2023-09-12T07:03:58;24.60;99.90
31979;DHT22;18502;43.574;1.276;2023-09-12T07:06:24;24.60;99.90
31979;DHT22;18502;43.574;1.276;2023-09-12T07:08:49;24.60;99.90
31979;DHT22;18502;43.574;1.276;2023-09-12T07:11:16;24.60;99.90
31979;DHT22;18502;43.574;1.276;2023-09-12T07:13:42;24.60;99.90
31979;DHT22;18502;43.574;1.276;2023-09-12T07:16:08;24.70;99.90
31979;DHT22;18502;43.574;1.276;2023-09-12T07:18:33;24.70;99.90
31979;DHT22;18502;43.574;1.276;2023-09-12T07:21:00;24.70;99.90
31979;DHT22;18502;43.574;1.276;2023-09-12T07:23:26;24.80;99.90
31979;DHT22;18502;43.574;1.276;2023-09-12T07:25:53;24.90;99.90
31979;DHT22;18502;43.574;1.276;2023-09-12T07:28:21;25.10;99.90
31979;DHT22;18502;43.574;1.276;2023-09-12T07:30:46;25.20;99.90
31979;DHT22;18502;43.574;1.276;2023-09-12T07:33:12;25.40;99.90
31979;DHT22;18502;43.574;1.276;2023-09-12T07:35:38;25.60;99.90
31979;DHT22;18502;43.574;1.276;2023-09-12T07:38:04;25.50;99.90
31979;DHT22;18502;43.574;1.276;2023-09-12T07:40:29;25.60;99.90
31979;DHT22;18502;43.574;1.276;2023-09-12T07:42:55;25.50;99.90
31979;DHT22;18502;43.574;1.276;2023-09-12T07:45:21;25.40;99.90
31979;DHT22;18502;43.574;1.276;2023-09-12T07:47:46;25.50;99.90
31979;DHT22;18502;43.574;1.276;2023-09-12T07:50:12;25.70;99.90
31979;DHT22;18502;43.574;1.276;2023-09-12T07:52:38;25.60;99.90
31979;DHT22;18502;43.574;1.276;2023-09-12T07:55:04;25.70;99.90
31979;DHT22;18502;43.574;1.276;2023-09-12T07:57:30;25.60;99.90
31979;DHT22;18502;43.574;1.276;2023-09-12T07:59:56;25.60;99.90
31979;DHT22;18502;43.574;1.276;2023-09-12T08:02:22;25.40;99.90
31979;DHT22;18502;43.574;1.276;2023-09-12T08:04:51;25.30;99.90
31979;DHT22;18502;43.574;1.276;2023-09-12T08:07:19;25.20;99.90
31979;DHT22;18502;43.574;1.276;2023-09-12T08:09:53;25.00;99.90
31979;DHT22;18502;43.574;1.276;2023-09-12T08:12:21;24.80;99.90
31979;DHT22;18502;43.574;1.276;2023-09-12T08:14:47;25.00;99.90
31979;DHT22;18502;43.574;1.276;2023-09-12T08:17:13;25.00;99.90
31979;DHT22;18502;43.574;1.276;2023-09-12T08:19:39;25.00;99.90
31979;DHT22;18502;43.574;1.276;2023-09-12T08:22:05;25.10;99.90
31979;DHT22;18502;43.574;1.276;2023-09-12T08:24:31;25.40;99.90
31979;DHT22;18502;43.574;1.276;2023-09-12T08:26:57;25.50;99.90
31979;DHT22;18502;43.574;1.276;2023-09-12T08:29:22;25.50;99.90
31979;DHT22;18502;43.574;1.276;2023-09-12T08:31:49;25.60;99.90
31979;DHT22;18502;43.574;1.276;2023-09-12T08:34:15;25.60;99.90
31979;DHT22;18502;43.574;1.276;2023-09-12T08:36:41;25.50;99.90
31979;DHT22;18502;43.574;1.276;2023-09-12T08:39:10;25.60;99.90
31979;DHT22;18502;43.574;1.276;2023-09-12T08:41:36;25.80;99.90
31979;DHT22;18502;43.574;1.276;2023-09-12T08:44:02;25.80;99.90
31979;DHT22;18502;43.574;1.276;2023-09-12T08:46:31;25.70;99.90
31979;DHT22;18502;43.574;1.276;2023-09-12T08:48:57;25.70;99.90
31979;DHT22;18502;43.574;1.276;2023-09-12T08:51:23;25.70;99.90
31979;DHT22;18502;43.574;1.276;2023-09-12T08:53:50;25.60;99.90
31979;DHT22;18502;43.574;1.276;2023-09-12T08:56:16;25.40;99.90
31979;DHT22;18502;43.574;1.276;2023-09-12T08:58:43;24.90;99.90
31979;DHT22;18502;43.574;1.276;2023-09-12T09:01:13;24.70;99.90
31979;DHT22;18502;43.574;1.276;2023-09-12T09:03:42;24.30;99.90
31979;DHT22;18502;43.574;1.276;2023-09-12T09:06:11;24.00;99.90
31979;DHT22;18502;43.574;1.276;2023-09-12T09:08:39;23.90;99.90
31979;DHT22;18502;43.574;1.276;2023-09-12T09:11:05;23.70;99.90
31979;DHT22;18502;43.574;1.276;2023-09-12T09:13:33;23.50;99.90
31979;DHT22;18502;43.574;1.276;2023-09-12T09:16:13;23.40;99.90
31979;DHT22;18502;43.574;1.276;2023-09-12T09:21:25;23.20;99.90
31979;DHT22;18502;43.574;1.276;2023-09-12T09:23:53;23.10;99.90
31979;DHT22;18502;43.574;1.276;2023-09-12T09:26:19;22.60;99.90
31979;DHT22;18502;43.574;1.276;2023-09-12T09:28:46;22.30;99.90
31979;DHT22;18502;43.574;1.276;2023-09-12T09:31:25;22.50;99.90
31979;DHT22;18502;43.574;1.276;2023-09-12T09:33:51;22.50;99.90
31979;DHT22;18502;43.574;1.276;2023-09-12T09:36:17;22.30;99.90
31979;DHT22;18502;43.574;1.276;2023-09-12T09:38:43;21.60;99.90
31979;DHT22;18502;43.574;1.276;2023-09-12T09:41:09;21.60;99.90
31979;DHT22;18502;43.574;1.276;2023-09-12T09:43:35;21.60;99.90
31979;DHT22;18502;43.574;1.276;2023-09-12T09:46:01;21.90;99.90
31979;DHT22;18502;43.574;1.276;2023-09-12T09:48:28;22.10;99.90
31979;DHT22;18502;43.574;1.276;2023-09-12T09:51:00;22.40;99.90
31979;DHT22;18502;43.574;1.276;2023-09-12T09:53:28;22.50;99.90
31979;DHT22;18502;43.574;1.276;2023-09-12T09:56:13;22.50;99.90
31979;DHT22;18502;43.574;1.276;2023-09-12T10:01:37;22.50;99.90
31979;DHT22;18502;43.574;1.276;2023-09-12T10:04:03;22.50;99.90
31979;DHT22;18502;43.574;1.276;2023-09-12T10:06:29;22.10;99.90
31979;DHT22;18502;43.574;1.276;2023-09-12T10:08:58;21.50;99.90
31979;DHT22;18502;43.574;1.276;2023-09-12T10:11:28;21.50;99.90
31979;DHT22;18502;43.574;1.276;2023-09-12T10:13:55;21.70;99.90
31979;DHT22;18502;43.574;1.276;2023-09-12T10:16:35;21.80;99.90
31979;DHT22;18502;43.574;1.276;2023-09-12T10:21:57;21.50;99.90
31979;DHT22;18502;43.574;1.276;2023-09-12T10:24:25;21.70;99.90
31979;DHT22;18502;43.574;1.276;2023-09-12T10:26:53;21.80;99.90
31979;DHT22;18502;43.574;1.276;2023-09-12T10:29:20;21.70;99.90
31979;DHT22;18502;43.574;1.276;2023-09-12T10:31:48;21.70;99.90
31979;DHT22;18502;43.574;1.276;2023-09-12T10:34:14;21.80;99.90
31979;DHT22;18502;43.574;1.276;2023-09-12T10:36:41;21.70;99.90
31979;DHT22;18502;43.574;1.276;2023-09-12T10:39:08;21.70;99.90
31979;DHT22;18502;43.574;1.276;2023-09-12T10:41:38;21.40;99.90
31979;DHT22;18502;43.574;1.276;2023-09-12T10:44:25;21.30;99.90
31979;DHT22;18502;43.574;1.276;2023-09-12T10:46:51;21.30;99.90
31979;DHT22;18502;43.574;1.276;2023-09-12T10:49:19;21.30;99.90
31979;DHT22;18502;43.574;1.276;2023-09-12T10:51:47;21.30;99.90
31979;DHT22;18502;43.574;1.276;2023-09-12T10:54:23;21.30;99.90
31979;DHT22;18502;43.574;1.276;2023-09-12T10:57:03;21.40;99.90
31979;DHT22;18502;43.574;1.276;2023-09-12T10:59:29;21.40;99.90
31979;DHT22;18502;43.574;1.276;2023-09-12T11:02:32;21.50;99.90
31979;DHT22;18502;43.574;1.276;2023-09-12T11:05:00;21.70;99.90
31979;DHT22;18502;43.574;1.276;2023-09-12T11:07:34;21.90;99.90
31979;DHT22;18502;43.574;1.276;2023-09-12T11:12:47;21.90;99.90
31979;DHT22;18502;43.574;1.276;2023-09-12T11:15:17;22.00;99.90
31979;DHT22;18502;43.574;1.276;2023-09-12T11:17:47;22.00;99.90
31979;DHT22;18502;43.574;1.276;2023-09-12T11:20:14;22.30;99.90
31979;DHT22;18502;43.574;1.276;2023-09-12T11:22:45;22.80;99.90
31979;DHT22;18502;43.574;1.276;2023-09-12T11:25:20;22.90;99.90
31979;DHT22;18502;43.574;1.276;2023-09-12T11:30:22;23.20;99.90
31979;DHT22;18502;43.574;1.276;2023-09-12T11:32:53;23.50;99.90
31979;DHT22;18502;43.574;1.276;2023-09-12T11:35:23;23.90;99.90
31979;DHT22;18502;43.574;1.276;2023-09-12T11:37:54;24.20;99.90
31979;DHT22;18502;43.574;1.276;2023-09-12T11:42:59;24.30;99.90
31979;DHT22;18502;43.574;1.276;2023-09-12T11:45:25;24.50;99.90
31979;DHT22;18502;43.574;1.276;2023-09-12T11:47:51;24.70;99.90
31979;DHT22;18502;43.574;1.276;2023-09-12T11:50:30;24.70;99.90
31979;DHT22;18502;43.574;1.276;2023-09-12T11:55:34;23.70;99.90
31979;DHT22;18502;43.574;1.276;2023-09-12T11:58:00;23.80;99.90
31979;DHT22;18502;43.574;1.276;2023-09-12T12:00:27;23.40;99.90
31979;DHT22;18502;43.574;1.276;2023-09-12T12:02:54;23.30;99.90
31979;DHT22;18502;43.574;1.276;2023-09-12T12:05:20;23.30;99.90
31979;DHT22;18502;43.574;1.276;2023-09-12T12:07:47;23.20;99.90
31979;DHT22;18502;43.574;1.276;2023-09-12T12:10:13;22.90;99.90
31979;DHT22;18502;43.574;1.276;2023-09-12T12:12:39;22.90;99.90
31979;DHT22;18502;43.574;1.276;2023-09-12T12:15:09;22.70;99.90
31979;DHT22;18502;43.574;1.276;2023-09-12T12:17:37;22.60;99.90
31979;DHT22;18502;43.574;1.276;2023-09-12T12:20:07;22.60;99.90
31979;DHT22;18502;43.574;1.276;2023-09-12T12:22:39;22.50;99.90
31979;DHT22;18502;43.574;1.276;2023-09-12T12:25:08;22.50;99.90
31979;DHT22;18502;43.574;1.276;2023-09-12T12:27:38;22.50;99.90
31979;DHT22;18502;43.574;1.276;2023-09-12T12:30:12;22.30;99.90
31979;DHT22;18502;43.574;1.276;2023-09-12T12:32:42;22.10;99.90
31979;DHT22;18502;43.574;1.276;2023-09-12T12:35:17;22.00;99.90
31979;DHT22;18502;43.574;1.276;2023-09-12T12:37:43;22.10;99.90
31979;DHT22;18502;43.574;1.276;2023-09-12T12:40:12;22.10;99.90
31979;DHT22;18502;43.574;1.276;2023-09-12T12:42:39;22.30;99.90
31979;DHT22;18502;43.574;1.276;2023-09-12T12:45:18;22.50;99.90
31979;DHT22;18502;43.574;1.276;2023-09-12T12:47:44;22.60;99.90
31979;DHT22;18502;43.574;1.276;2023-09-12T12:50:11;23.00;99.90
31979;DHT22;18502;43.574;1.276;2023-09-12T12:52:38;23.20;99.90
31979;DHT22;18502;43.574;1.276;2023-09-12T12:55:05;23.50;99.90
31979;DHT22;18502;43.574;1.276;2023-09-12T12:57:31;23.70;99.90
31979;DHT22;18502;43.574;1.276;2023-09-12T12:59:58;23.70;99.90
31979;DHT22;18502;43.574;1.276;2023-09-12T13:02:23;23.30;99.90
31979;DHT22;18502;43.574;1.276;2023-09-12T13:04:49;22.70;99.90
31979;DHT22;18502;43.574;1.276;2023-09-12T13:07:15;22.30;99.90
31979;DHT22;18502;43.574;1.276;2023-09-12T13:09:40;22.00;99.90
31979;DHT22;18502;43.574;1.276;2023-09-12T13:12:07;22.10;99.90
31979;DHT22;18502;43.574;1.276;2023-09-12T13:14:34;22.20;99.90
31979;DHT22;18502;43.574;1.276;2023-09-12T13:16:59;22.30;99.90
31979;DHT22;18502;43.574;1.276;2023-09-12T13:19:28;22.40;99.90
31979;DHT22;18502;43.574;1.276;2023-09-12T13:21:54;22.30;99.90
31979;DHT22;18502;43.574;1.276;2023-09-12T13:24:20;22.50;99.90
31979;DHT22;18502;43.574;1.276;2023-09-12T13:26:45;22.50;99.90
31979;DHT22;18502;43.574;1.276;2023-09-12T13:29:11;22.50;99.90
31979;DHT22;18502;43.574;1.276;2023-09-12T13:31:37;22.40;99.90
31979;DHT22;18502;43.574;1.276;2023-09-12T13:34:02;22.30;99.90
31979;DHT22;18502;43.574;1.276;2023-09-12T13:36:28;22.10;99.90
31979;DHT22;18502;43.574;1.276;2023-09-12T13:38:54;22.20;99.90
31979;DHT22;18502;43.574;1.276;2023-09-12T13:41:19;22.70;99.90
31979;DHT22;18502;43.574;1.276;2023-09-12T13:43:47;22.90;99.90
31979;DHT22;18502;43.574;1.276;2023-09-12T13:46:13;23.20;99.90
31979;DHT22;18502;43.574;1.276;2023-09-12T13:48:39;23.40;99.90
31979;DHT22;18502;43.574;1.276;2023-09-12T13:51:04;23.80;99.90
31979;DHT22;18502;43.574;1.276;2023-09-12T13:53:31;23.40;99.90
31979;DHT22;18502;43.574;1.276;2023-09-12T13:55:56;23.40;99.90
31979;DHT22;18502;43.574;1.276;2023-09-12T13:58:23;23.50;99.90
31979;DHT22;18502;43.574;1.276;2023-09-12T14:00:49;23.70;99.90
31979;DHT22;18502;43.574;1.276;2023-09-12T14:03:15;23.90;99.90
31979;DHT22;18502;43.574;1.276;2023-09-12T14:05:41;24.00;99.90
31979;DHT22;18502;43.574;1.276;2023-09-12T14:08:06;24.70;99.90
31979;DHT22;18502;43.574;1.276;2023-09-12T14:10:32;26.10;99.90
31979;DHT22;18502;43.574;1.276;2023-09-12T14:12:58;25.90;99.90
31979;DHT22;18502;43.574;1.276;2023-09-12T14:15:23;25.70;99.90
31979;DHT22;18502;43.574;1.276;2023-09-12T14:17:49;25.80;99.90
31979;DHT22;18502;43.574;1.276;2023-09-12T14:20:14;27.40;99.90
31979;DHT22;18502;43.574;1.276;2023-09-12T14:22:44;26.60;99.90
31979;DHT22;18502;43.574;1.276;2023-09-12T14:25:10;26.50;99.90
31979;DHT22;18502;43.574;1.276;2023-09-12T14:27:42;25.70;99.90
31979;DHT22;18502;43.574;1.276;2023-09-12T14:30:09;25.30;99.90
31979;DHT22;18502;43.574;1.276;2023-09-12T14:32:35;25.50;99.90
31979;DHT22;18502;43.574;1.276;2023-09-12T14:35:03;25.50;99.90
31979;DHT22;18502;43.574;1.276;2023-09-12T14:37:28;25.70;99.90
31979;DHT22;18502;43.574;1.276;2023-09-12T14:39:54;25.30;99.90
31979;DHT22;18502;43.574;1.276;2023-09-12T14:42:21;25.30;99.90
31979;DHT22;18502;43.574;1.276;2023-09-12T14:44:47;24.90;99.90
31979;DHT22;18502;43.574;1.276;2023-09-12T14:47:13;24.90;99.90
31979;DHT22;18502;43.574;1.276;2023-09-12T14:49:39;25.10;99.90
31979;DHT22;18502;43.574;1.276;2023-09-12T14:52:05;25.40;99.90
31979;DHT22;18502;43.574;1.276;2023-09-12T14:54:30;25.50;99.90
31979;DHT22;18502;43.574;1.276;2023-09-12T14:56:56;25.60;99.90
31979;DHT22;18502;43.574;1.276;2023-09-12T14:59:22;25.40;99.90
31979;DHT22;18502;43.574;1.276;2023-09-12T15:01:47;25.50;99.90
31979;DHT22;18502;43.574;1.276;2023-09-12T15:04:13;26.40;99.90
31979;DHT22;18502;43.574;1.276;2023-09-12T15:06:39;26.20;99.90
31979;DHT22;18502;43.574;1.276;2023-09-12T15:09:05;26.50;99.90
31979;DHT22;18502;43.574;1.276;2023-09-12T15:11:31;25.70;99.90
31979;DHT22;18502;43.574;1.276;2023-09-12T15:13:57;25.50;99.90
31979;DHT22;18502;43.574;1.276;2023-09-12T15:16:24;25.50;99.90
31979;DHT22;18502;43.574;1.276;2023-09-12T15:18:51;27.70;99.90
31979;DHT22;18502;43.574;1.276;2023-09-12T15:21:17;29.20;99.90
31979;DHT22;18502;43.574;1.276;2023-09-12T15:23:43;30.60;99.90
31979;DHT22;18502;43.574;1.276;2023-09-12T15:26:08;28.70;99.90
31979;DHT22;18502;43.574;1.276;2023-09-12T15:28:34;27.20;99.90
31979;DHT22;18502;43.574;1.276;2023-09-12T15:31:00;26.30;99.90
31979;DHT22;18502;43.574;1.276;2023-09-12T15:33:28;25.80;99.90
31979;DHT22;18502;43.574;1.276;2023-09-12T15:35:54;25.40;99.90
31979;DHT22;18502;43.574;1.276;2023-09-12T15:38:20;25.30;99.90
31979;DHT22;18502;43.574;1.276;2023-09-12T15:40:45;25.40;99.90
31979;DHT22;18502;43.574;1.276;2023-09-12T15:43:11;25.40;99.90
31979;DHT22;18502;43.574;1.276;2023-09-12T15:45:37;25.70;99.90
31979;DHT22;18502;43.574;1.276;2023-09-12T15:48:02;26.00;99.90
31979;DHT22;18502;43.574;1.276;2023-09-12T15:50:28;26.00;99.90
31979;DHT22;18502;43.574;1.276;2023-09-12T15:52:54;25.40;99.90